Hastings Natural History Reservation, California Weather observations

Data are for 10 minute period ending at time listed.
 Day   Time   Solar   Ave.   Ave.  Ave.  Vector  Max.   Baro.   Total    
  of    of     Rad.   Air    Rel.  Wind   Wind   Wind  Press.  Precip.   
Year   Day            Temp.  Hum.  Speed  Dir.   Gust                    
2015   (PST)  Kw/m2    F      %     mph   deg.    mph    mb.     in.     
-------------------------------------------------------------------------
 146    3:20   100.00  99999.0   99999  99999.0   99999   99999.0   99999.0   99999.00 
 146    3:30   100.00  99999.0   99999  99999.0   99999   99999.0   99999.0   99999.00 
 146    3:40   100.00  99999.0   99999  99999.0   99999   99999.0   99999.0   99999.00 
 146    3:50   100.00  99999.0   99999  99999.0   99999   99999.0   99999.0   99999.00 
 146    4:00   100.00  99999.0   99999  99999.0   99999   99999.0   99999.0   99999.00 
 146    4:10   100.00  99999.0   99999  99999.0   99999   99999.0   99999.0   99999.00 
 146    4:20   100.00  99999.0   99999  99999.0   99999   99999.0   99999.0   99999.00 
 146    4:30   100.00  99999.0   99999  99999.0   99999   99999.0   99999.0   99999.00 
 146    4:40   100.00  99999.0   99999  99999.0   99999   99999.0   99999.0   99999.00 
 146    4:50   100.00  99999.0   99999  99999.0   99999   99999.0   99999.0   99999.00 
 146    5:00   100.00  99999.0   99999  99999.0   99999   99999.0   99999.0   99999.00 
 146    5:10   100.00  99999.0   99999  99999.0   99999   99999.0   99999.0   99999.00 
 146    5:20   100.00  99999.0   99999  99999.0   99999   99999.0   99999.0   99999.00 
 146    5:30   100.00  99999.0   99999  99999.0   99999   99999.0   99999.0   99999.00 
 146    5:40   100.00  99999.0   99999  99999.0   99999   99999.0   99999.0   99999.00 
 146    5:50   100.00  99999.0   99999  99999.0   99999   99999.0   99999.0   99999.00 
 146    6:00   100.00  99999.0   99999  99999.0   99999   99999.0   99999.0   99999.00 
 146    6:10   100.00  99999.0   99999  99999.0   99999   99999.0   99999.0   99999.00 
 146    6:20   100.00  99999.0   99999  99999.0   99999   99999.0   99999.0   99999.00 
 146    6:30   100.00  99999.0   99999  99999.0   99999   99999.0   99999.0   99999.00 
 146    6:40   100.00  99999.0   99999  99999.0   99999   99999.0   99999.0   99999.00 
 146    6:50   0.02   45.1    99    1.5    35     3.7   952.0    0.00 
 146    7:00   0.03   45.5   100    1.3    48     2.7   952.1    0.00 
 146    7:10   0.04   46.1   100    1.3    28     3.0   952.2    0.00 
 146    7:20   0.05   46.3    99    2.0   240     4.4   952.4    0.00 
 146    7:30   0.07   46.3    99    0.7   223     2.5   952.5    0.00 
 146    7:40   0.10   46.9    99    0.9    25     3.1   952.5    0.00 
 146    7:50   0.14   47.6    98    0.7     1     2.3   952.6    0.00 
 146    8:00   0.14   48.0    96    1.1   298     3.2   952.6    0.00 
 146    8:10   0.15   48.0    91    1.0   247     2.4   952.6    0.00 
 146    8:20   0.16   48.8    88    0.9   137     2.3   952.7    0.00 
 146    8:30   0.25   48.9    87    2.0   231     5.3   952.7    0.00 
 146    8:40   0.35   49.7    84    1.9    72     4.0   952.6    0.00 
 146    8:50   0.52   50.9    81    2.5    47     4.5   952.5    0.00 
 146    9:00   0.55   52.6    78    1.5   153     3.9   952.4    0.00 
 146    9:10   0.52   52.7    79    3.8   243     7.2   952.4    0.00 
 146    9:20   0.46   52.8    78    1.4   267     4.2   952.4    0.00 
 146    9:30   0.50   54.6    74    1.9   258     6.1   952.4    0.00 
 146    9:40   0.60   55.3    72    2.0   261     5.4   952.3    0.00 
 146    9:50   0.63   54.7    74    4.5   239     7.6   952.2    0.00 
 146   10:00   0.64   55.1    73    3.2   240     6.8   952.3    0.00 
 146   10:10   0.67   56.4    71    3.3   255     9.5   952.4    0.00 
 146   10:20   0.69   57.4    69    2.6   255     8.1   952.4    0.00 
 146   10:30   0.71   58.0    67    2.2   288     5.9   952.4    0.00 
 146   10:40   0.73   57.5    68    2.9   259     6.4   952.2    0.00 
 146   10:50   0.76   59.0    66    3.1   266     7.7   952.2    0.00 
 146   11:00   0.77   59.1    66    3.3   249     8.1   952.2    0.00 
 146   11:10   0.79   60.2    64    2.3   267     8.2   952.2    0.00 
 146   11:20   0.81   61.2    62    3.0   248     7.9   952.1    0.00 
 146   11:30   0.80   61.0    62    3.6   250     8.7   952.1    0.00 
 146   11:40   0.81   61.8    60    2.1   257     6.4   952.0    0.00 
 146   11:50   0.85   63.7    57    2.8   262     6.9   951.9    0.00 
 146   12:00   0.84   63.6    57    3.8   251     8.7   951.9    0.00 
 146   12:10   0.86   63.7    57    3.6   255     8.6   951.9    0.00 
 146   12:20   0.89   64.4    56    2.4   248     7.0   951.8    0.00 
 146   12:30   0.87   65.2    55    4.1   253    11.0   951.7    0.00 
 146   12:40   0.87   65.0    55    4.6   247    10.8   951.6    0.00 
 146   12:50   0.91   66.8    52    2.3   292     8.5   951.6    0.00 
 146   13:00   0.89   67.6    51    3.8   280    10.2   951.5    0.00 
 146   13:10   0.86   66.0    54    5.3   251    10.8   951.4    0.00 
 146   13:20   0.89   66.5    53    4.4   253     9.9   951.4    0.00 
 146   13:30   0.89   67.7    52    3.2   255    10.2   951.3    0.00 
 146   13:40   0.90   67.8    52    3.8   258    12.1   951.2    0.00 
 146   13:50   0.89   67.6    52    3.2   267    10.1   951.2    0.00 
 146   14:00   0.88   66.9    54    4.7   241    12.4   951.1    0.00 
 146   14:10   0.83   66.0    55    5.7   241    10.8   951.0    0.00 
 146   14:20   0.86   67.1    53    4.7   249     9.2   951.0    0.00 
 146   14:30   0.87   67.4    53    4.1   253    10.5   951.1    0.00 
 146   14:40   0.84   68.0    52    4.0   259    11.0   951.1    0.00 
 146   14:50   0.84   67.9    53    4.4   253    11.1   951.1    0.00 
 146   15:00   0.84   67.2    54    4.5   264    11.7   951.1    0.00 
 146   15:10   0.81   67.8    53    3.4   260    10.0   951.2    0.00 
 146   15:20   0.79   67.8    53    3.4   264     9.7   951.2    0.00 
 146   15:30   0.80   68.0    53    2.8   278    11.2   951.2    0.00 
 146   15:40   0.76   66.9    54    3.3   260    10.0   951.1    0.00 
 146   15:50   0.77   69.0    51    2.3   288     8.8   951.1    0.00 
 146   16:00   0.74   68.1    52    2.6   265     8.7   951.0    0.00 
 146   16:10   0.72   67.4    53    3.7   269    11.3   951.0    0.00 
 146   16:20   0.68   68.1    52    2.6   267     8.3   951.0    0.00 
 146   16:30   0.66   67.4    53    3.5   263     9.5   951.0    0.00 
 146   16:40   0.63   66.9    54    3.9   254    14.5   951.0    0.00 
 146   16:50   0.61   66.2    55    3.7   262     9.7   951.0    0.00 
 146   17:00   0.57   66.3    55    4.1   269    10.8   951.0    0.00 
 146   17:10   0.57   64.7    57    5.6   250    10.9   951.0    0.00 
 146   17:20   0.54   64.5    58    4.4   255    10.7   951.0    0.00 
 146   17:30   0.47   63.8    58    3.9   261    11.8   951.1    0.00 
 146   17:40   0.47   63.7    59    4.9   258    10.4   951.1    0.00 
 146   17:50   0.39   64.3    57    3.0   263     9.4   951.1    0.00 
 146   18:00   0.37   64.0    58    2.5   302     8.9   951.1    0.00 
 146   18:10   0.32   63.7    58    3.2   267     6.9   951.1    0.00 
 146   18:20   0.28   62.9    60    2.8   262     9.1   951.1    0.00 
 146   18:30   0.30   61.2    63    4.5   249    10.4   951.0    0.00 
 146   18:40   0.20   61.5    62    2.6   274     7.7   951.0    0.00 
 146   18:50   0.24   59.5    67    3.8   253     8.3   951.1    0.00 
 146   19:00   0.17   58.3    69    4.3   253    11.0   951.3    0.00 
 146   19:10   0.03   57.4    71    3.4   251     8.3   951.5    0.00 
 146   19:20   0.03   56.8    72    3.0   260     8.0   951.6    0.00 
 146   19:30   0.03   55.7    74    4.3   248     7.7   951.6    0.00 
 146   19:40   0.01   55.0    76    2.9   244     8.7   951.7    0.00 
 146   19:50   0.01   53.8    79    4.3   244     7.3   951.9    0.00 
 146   20:00   0.01   52.7    81    4.5   243     8.0   952.0    0.00 
 146   20:10   0.00   51.9    83    3.0   250     6.9   952.1    0.00 
 146   20:20   0.00   51.2    85    2.4   244     6.6   952.3    0.00 
 146   20:30   0.00   50.3    87    2.5   248     6.2   952.3    0.00 
 146   20:40   0.00   49.9    89    2.6   242     4.7   952.5    0.00 
 146   20:50   0.00   49.9    90    2.3   251     5.5   952.6    0.00 
 146   21:00   0.00   50.0    90    1.8   258     3.4   952.7    0.00 
 146   21:10   0.00   49.9    90    2.4   247     4.7   952.7    0.00 
 146   21:20   0.00   49.9    91    1.3   274     4.0   952.8    0.00 
 146   21:30   0.00   50.0    90    1.4   350     3.1   952.7    0.00 
 146   21:40   0.00   49.9    91    0.6   289     2.1   952.7    0.00 
 146   21:50   0.00   49.6    91    1.2   247     2.6   952.7    0.00 
 146   22:00   0.00   49.5    92    1.3   261     3.1   952.7    0.00 
 146   22:10   0.00   49.4    92    0.7   236     2.0   952.7    0.00 
 146   22:20   0.00   49.2    93    1.7   242     3.0   952.6    0.00 
 146   22:30   0.00   49.2    93    1.4   256     2.5   952.5    0.00 
 146   22:40   0.00   49.3    92    1.0   259     2.2   952.4    0.00 
 146   22:50   0.00   49.1    92    0.6   232     2.3   952.4    0.00 
 146   23:00   0.00   48.4    90    1.0    63     1.5   952.4    0.00 
 146   23:10   0.00   47.6    90    1.2    59     2.7   952.4    0.00 
 146   23:20   0.00   47.3    90    0.8    58     2.4   952.5    0.00 
 146   23:30   0.00   47.0    89    0.7    45     1.5   952.5    0.00 
 146   23:40   0.00   46.3    89    1.0    46     1.5   952.6    0.00 
 146   23:50   0.00   46.5    89    0.6    53     1.6   952.7    0.00 
 147    0:00   0.00   47.2    88    0.0    55     0.4   952.7    0.00 
 147    0:10   0.00   47.8    87    0.2    40     1.8   952.7    0.00 
 147    0:20   0.00   48.1    89    1.0    56     2.1   952.7    0.00 
 147    0:30   0.00   48.2    91    1.7    52     3.1   952.7    0.00 
 147    0:40   0.00   48.1    93    0.7    62     2.6   952.8    0.00 
 147    0:50   0.00   48.0    94    1.6    67     3.4   952.7    0.00 
 147    1:00   0.00   47.8    94    1.7    69     3.1   952.6    0.00 
 147    1:10   0.00   47.8    94    1.5    43     3.0   952.7    0.00 
 147    1:20   0.00   47.7    95    1.6    42     3.1   952.6    0.00 
 147    1:30   0.00   47.8    95    1.6    38     3.1   952.5    0.00 
 147    1:40   0.00   47.8    96    1.6    37     2.7   952.5    0.00 
 147    1:50   0.00   47.6    96    1.6    31     2.9   952.5    0.00 
 147    2:00   0.00   47.6    96    2.4    42     3.6   952.5    0.00 
 147    2:10   0.00   47.4    97    2.0    40     3.7   952.5    0.00 
 147    2:20   0.00   47.3    98    1.8    57     3.2   952.4    0.00 
 147    2:30   0.00   47.1    98    1.8    53     3.4   952.4    0.00 
 147    2:40   0.00   46.6    98    2.6    48     4.6   952.5    0.00 
 147    2:50   0.00   46.3    99    1.9    41     3.4   952.4    0.00 
 147    3:00   0.00   46.0    99    2.6    50     4.3   952.3    0.00 
 147    3:10   0.00   45.5    99    2.0    62     3.9   952.2    0.00 

Return to Hastings Natural History Reservation graphs page.


Western Regional Climate Center,wrcc@dri.edu